Time;durP1;ratioP1;P1;durP2;ratioP2;P2;SDS_P1;SDS_P2;PMS_P1;PMS_P2;Temp;Humidity;BMP_temperature;BMP_pressure;BME280_temperature;BME280_humidity;BME280_pressure;Samples;Min_cycle;Max_cycle;Signal;HPM_P1;HPM_P2
2022/08/04 00:02:20;;;;;;;8.52;4.00;;;;;;;19.36;100.00;101301.25;5079740;28;20032;-71
2022/08/04 00:04:54;;;;;;;11.52;3.72;;;;;;;19.33;100.00;101299.75;5067182;28;20032;-71
2022/08/04 00:07:29;;;;;;;8.32;3.60;;;;;;;19.33;100.00;101293.59;5061126;28;20024;-71
2022/08/04 00:09:59;;;;;;;10.25;2.65;;;;;;;19.30;100.00;101291.31;5073098;28;20028;-71
2022/08/04 00:12:29;;;;;;;8.20;3.45;;;;;;;19.30;100.00;101291.31;5077786;28;20610;-71
2022/08/04 00:14:58;;;;;;;13.10;3.25;;;;;;;19.23;100.00;101285.09;5074593;28;20028;-71
2022/08/04 00:17:29;;;;;;;5.55;3.13;;;;;;;19.19;100.00;101281.97;5074258;28;20025;-71
2022/08/04 00:19:59;;;;;;;10.35;4.15;;;;;;;19.14;100.00;101280.91;5075714;28;20099;-71
2022/08/04 00:22:28;;;;;;;9.93;2.97;;;;;;;19.18;100.00;101292.88;5078020;28;20319;-71
2022/08/04 00:25:01;;;;;;;8.95;4.05;;;;;;;19.17;100.00;101297.41;5072234;28;20025;-71
2022/08/04 00:27:31;;;;;;;6.03;3.00;;;;;;;19.10;100.00;101275.97;5078798;28;20074;-71
2022/08/04 00:29:58;;;;;;;9.30;3.38;;;;;;;19.16;100.00;101284.22;5073787;28;20143;-71
2022/08/04 00:32:26;;;;;;;8.18;3.25;;;;;;;19.14;100.00;101284.44;5076810;28;20023;-71
2022/08/04 00:34:54;;;;;;;6.45;4.63;;;;;;;19.12;100.00;101283.78;5076789;28;20362;-71
2022/08/04 00:37:24;;;;;;;10.27;4.03;;;;;;;19.10;100.00;101283.16;5078152;28;20024;-70
2022/08/04 00:39:51;;;;;;;9.13;3.75;;;;;;;19.07;100.00;101280.88;5060648;28;20094;-70
2022/08/04 00:42:25;;;;;;;8.82;3.95;;;;;;;19.02;100.00;101289.47;5072696;28;20032;-70
2022/08/04 00:45:19;;;;;;;6.72;4.07;;;;;;;19.02;100.00;101288.66;5074869;28;20032;-71
2022/08/04 00:48:00;;;;;;;6.82;3.80;;;;;;;18.97;100.00;101291.09;5071834;28;20059;-71
2022/08/04 00:50:38;;;;;;;7.38;3.42;;;;;;;18.87;100.00;101276.19;5074104;28;20087;-71
2022/08/04 00:53:12;;;;;;;8.30;4.25;;;;;;;18.90;100.00;101286.53;5076094;28;20091;-71
2022/08/04 00:55:52;;;;;;;10.63;4.13;;;;;;;18.90;100.00;101286.53;5072547;28;20111;-71
2022/08/04 00:58:28;;;;;;;17.40;5.50;;;;;;;18.89;100.00;101287.53;5071468;28;20059;-71
2022/08/04 01:01:00;;;;;;;9.38;4.30;;;;;;;18.89;100.00;101289.38;5073836;28;20122;-71
2022/08/04 01:03:40;;;;;;;9.05;4.63;;;;;;;18.89;100.00;101282.19;5071449;28;20514;-71
2022/08/04 01:06:21;;;;;;;15.25;4.68;;;;;;;18.88;100.00;101283.22;5073916;28;20024;-71
2022/08/04 01:08:59;;;;;;;4.82;3.92;;;;;;;18.89;100.00;101284.84;5055329;28;20031;-71
2022/08/04 01:11:45;;;;;;;7.93;3.63;;;;;;;18.89;100.00;101276.00;5074019;28;20078;-71
2022/08/04 01:14:20;;;;;;;11.35;4.68;;;;;;;18.89;100.00;101276.84;5074404;28;20324;-71
2022/08/04 01:16:51;;;;;;;12.98;5.20;;;;;;;18.78;100.00;101272.03;5075831;28;20587;-71
2022/08/04 01:19:54;;;;;;;11.90;4.93;;;;;;;18.88;100.00;101280.53;5069152;28;20028;-71
2022/08/04 01:22:31;;;;;;;11.20;5.13;;;;;;;18.84;100.00;101267.75;5078599;28;20109;-71
2022/08/04 01:25:33;;;;;;;12.15;4.82;;;;;;;18.90;100.00;101273.16;5075891;28;20103;-71
2022/08/04 01:28:23;;;;;;;12.30;4.47;;;;;;;18.91;100.00;101276.66;5068496;28;20052;-71
2022/08/04 01:30:55;;;;;;;7.80;5.65;;;;;;;18.84;100.00;101260.56;5074964;28;20129;-71
2022/08/04 01:33:23;;;;;;;8.35;4.28;;;;;;;18.86;100.00;101253.16;5070387;28;20024;-71
2022/08/04 01:36:01;;;;;;;9.63;4.63;;;;;;;18.94;100.00;101265.53;5068286;28;20388;-71
2022/08/04 01:38:34;;;;;;;8.02;4.28;;;;;;;18.94;100.00;101270.06;5068397;28;20492;-71
2022/08/04 01:41:05;;;;;;;12.10;4.90;;;;;;;18.87;100.00;101268.19;5076711;28;20112;-71
2022/08/04 01:43:33;;;;;;;9.35;4.45;;;;;;;18.90;100.00;101269.63;5072593;28;20386;-71
2022/08/04 01:46:02;;;;;;;7.60;4.90;;;;;;;18.87;100.00;101270.84;5072428;28;20361;-71
2022/08/04 01:48:28;;;;;;;13.65;4.88;;;;;;;18.87;100.00;101272.69;5075941;28;20667;-71
2022/08/04 01:50:57;;;;;;;11.63;4.75;;;;;;;18.86;100.00;101268.38;5074507;28;20029;-71
2022/08/04 01:53:29;;;;;;;9.77;4.95;;;;;;;18.82;100.00;101262.59;5074723;28;20119;-71
2022/08/04 01:55:56;;;;;;;18.15;5.88;;;;;;;18.79;100.00;101267.50;5080909;28;20069;-71
2022/08/04 01:58:23;;;;;;;10.98;5.32;;;;;;;18.75;100.00;101264.38;5072601;28;20043;-71
2022/08/04 02:00:57;;;;;;;14.40;5.40;;;;;;;18.74;100.00;101259.19;5072494;28;20055;-71
2022/08/04 02:03:22;;;;;;;9.25;5.35;;;;;;;18.71;100.00;101260.41;5088218;28;20032;-71
2022/08/04 02:05:49;;;;;;;20.67;5.82;;;;;;;18.69;100.00;101268.63;5072120;28;20024;-71
2022/08/04 02:08:26;;;;;;;13.60;4.75;;;;;;;18.71;100.00;101260.41;5076129;28;20044;-71
2022/08/04 02:11:09;;;;;;;10.45;5.57;;;;;;;18.70;100.00;101254.25;5071936;28;20432;-71
2022/08/04 02:13:43;;;;;;;16.35;5.25;;;;;;;18.70;100.00;101253.41;5073848;28;20032;-72
2022/08/04 02:16:17;;;;;;;12.05;4.80;;;;;;;18.71;100.00;101250.53;5072266;28;20528;-71
2022/08/04 02:19:08;;;;;;;7.78;5.30;;;;;;;18.69;100.00;101260.59;5081835;28;20448;-71
2022/08/04 02:21:34;;;;;;;8.75;4.50;;;;;;;18.66;100.00;101257.47;5089341;28;20487;-71
2022/08/04 02:24:05;;;;;;;13.20;5.10;;;;;;;18.58;100.00;101236.25;5074304;28;20119;-71
2022/08/04 02:26:32;;;;;;;10.18;5.03;;;;;;;18.68;100.00;101255.44;5071220;28;20459;-71
2022/08/04 02:29:18;;;;;;;6.97;5.15;;;;;;;18.67;100.00;101259.16;5078237;28;20044;-71
2022/08/04 02:32:00;;;;;;;15.15;4.68;;;;;;;18.69;100.00;101262.47;5068101;28;20039;-71
2022/08/04 02:35:21;;;;;;;20.65;6.05;;;;;;;18.65;100.00;101261.19;5075016;28;20040;-71
2022/08/04 02:37:48;;;;;;;7.13;4.10;;;;;;;18.65;100.00;101258.50;5048324;28;20032;-71
2022/08/04 02:40:19;;;;;;;9.68;5.20;;;;;;;18.65;100.00;101261.19;5075299;28;20063;-71
2022/08/04 02:42:45;;;;;;;12.25;6.13;;;;;;;18.66;100.00;101257.47;5066752;28;20031;-71
2022/08/04 02:45:11;;;;;;;8.45;5.38;;;;;;;18.69;100.00;101257.13;5079902;28;20461;-71
2022/08/04 02:47:38;;;;;;;12.35;4.78;;;;;;;18.69;100.00;101252.59;5077032;28;20027;-71
2022/08/04 02:50:07;;;;;;;13.52;4.75;;;;;;;18.59;100.00;101238.72;5072879;28;20512;-71
2022/08/04 02:52:34;;;;;;;12.68;4.75;;;;;;;18.67;100.00;101243.94;5078101;28;20028;-71
2022/08/04 02:55:01;;;;;;;21.88;6.55;;;;;;;18.67;100.00;101238.59;5070847;28;20022;-71
2022/08/04 02:57:30;;;;;;;11.23;5.28;;;;;;;18.66;100.00;101236.94;5074030;28;20032;-71
2022/08/04 03:00:10;;;;;;;16.92;5.63;;;;;;;18.67;100.00;101235.91;5075552;28;20536;-71
2022/08/04 03:02:45;;;;;;;14.77;4.85;;;;;;;18.67;100.00;101237.75;5074791;28;20028;-71
2022/08/04 03:05:17;;;;;;;6.50;4.40;;;;;;;18.57;100.00;101215.88;5070057;28;20028;-71
2022/08/04 03:07:42;;;;;;;10.90;4.70;;;;;;;18.68;100.00;101234.06;5071503;28;20088;-71
2022/08/04 03:10:13;;;;;;;14.68;5.38;;;;;;;18.71;100.00;101233.69;5072546;28;20020;-71
2022/08/04 03:13:12;;;;;;;12.40;5.95;;;;;;;18.73;100.00;101234.31;5074798;28;20028;-71
2022/08/04 03:15:47;;;;;;;7.63;4.53;;;;;;;18.75;100.00;101234.94;5052901;28;20392;-71
2022/08/04 03:18:34;;;;;;;12.38;5.07;;;;;;;18.77;100.00;101227.56;5074754;28;20097;-71
2022/08/04 03:21:17;;;;;;;9.38;4.45;;;;;;;18.78;100.00;101229.25;5070985;28;20048;-71
2022/08/04 03:24:01;;;;;;;7.75;3.97;;;;;;;18.81;100.00;101228.00;5078393;28;20032;-71
2022/08/04 03:26:53;;;;;;;6.03;4.00;;;;;;;18.82;100.00;101219.81;5070570;28;20039;-71
2022/08/04 03:29:54;;;;;;;10.23;4.45;;;;;;;18.83;100.00;101210.75;5073501;28;20116;-71
2022/08/04 03:32:47;;;;;;;8.55;4.03;;;;;;;18.83;100.00;101208.06;5088372;28;20369;-71
2022/08/04 03:35:40;;;;;;;7.80;4.55;;;;;;;18.82;100.00;101208.28;5080272;28;20487;-71
2022/08/04 03:38:42;;;;;;;9.10;5.75;;;;;;;18.83;100.00;101208.06;5075387;28;20035;-71
2022/08/04 03:41:36;;;;;;;9.65;4.15;;;;;;;18.85;100.00;101208.72;5073248;28;20017;-71
2022/08/04 03:44:04;;;;;;;10.35;4.75;;;;;;;18.85;100.00;101205.22;5080622;28;20039;-71
2022/08/04 03:47:37;;;;;;;6.68;3.83;;;;;;;18.86;100.00;101199.69;5079659;28;20016;-71
2022/08/04 03:50:46;;;;;;;11.75;5.22;;;;;;;18.76;100.00;101183.13;4972441;28;20502;-71
2022/08/04 03:53:42;;;;;;;13.25;4.85;;;;;;;18.87;100.00;101201.31;4970682;28;20042;-71
2022/08/04 03:56:28;;;;;;;10.70;3.97;;;;;;;18.87;100.00;101198.66;4980809;28;20058;-71
2022/08/04 03:59:43;;;;;;;13.38;3.72;;;;;;;18.87;100.00;101195.97;4976754;28;20495;-71
2022/08/04 04:02:08;;;;;;;11.45;5.43;;;;;;;18.90;100.00;101189.41;4978199;28;20027;-71
2022/08/04 04:05:04;;;;;;;8.23;4.43;;;;;;;18.93;100.00;101193.56;4977501;28;20113;-71
2022/08/04 04:07:47;;;;;;;9.30;4.13;;;;;;;18.95;100.00;101186.97;4962923;28;20514;-71
2022/08/04 04:10:52;;;;;;;9.00;4.22;;;;;;;18.94;100.00;101179.97;4968894;28;20035;-71
2022/08/04 04:13:29;;;;;;;9.80;4.30;;;;;;;18.96;100.00;101187.78;4962794;28;20093;-71
2022/08/04 04:16:05;;;;;;;7.68;4.32;;;;;;;19.00;100.00;101187.19;4971269;28;20465;-72
2022/08/04 04:19:05;;;;;;;17.90;5.68;;;;;;;19.06;100.00;101188.28;4973393;28;20048;-71
2022/08/04 04:21:48;;;;;;;10.90;5.28;;;;;;;19.10;100.00;101190.34;4958709;28;20026;-70
2022/08/04 04:24:42;;;;;;;8.55;4.05;;;;;;;19.19;100.00;101185.66;4999832;28;20139;-71
2022/08/04 04:27:14;;;;;;;6.80;3.33;;;;;;;19.25;100.00;101187.53;5083371;28;20173;-71
2022/08/04 04:29:58;;;;;;;6.25;3.35;;;;;;;19.34;100.00;101188.19;5081083;28;20507;-70
2022/08/04 04:32:32;;;;;;;2.92;1.92;;;;;;;19.40;100.00;101183.88;5073821;28;20031;-70
2022/08/04 04:35:17;;;;;;;5.85;3.42;;;;;;;19.47;100.00;101188.25;5074992;28;20031;-70
2022/08/04 04:37:43;;;;;;;7.80;4.05;;;;;;;19.53;100.00;101183.94;5074022;28;20077;-71
2022/08/04 04:40:23;;;;;;;8.60;4.85;;;;;;;19.47;100.00;101185.56;5080044;28;20020;-71
2022/08/04 04:43:29;;;;;;;12.00;5.57;;;;;;;19.45;100.00;101184.13;5081122;28;20050;-71
2022/08/04 04:46:35;;;;;;;6.57;3.50;;;;;;;19.51;100.00;101185.97;5049197;28;20083;-71
2022/08/04 04:49:24;;;;;;;7.78;4.28;;;;;;;19.62;100.00;101188.09;5075411;28;20103;-71
2022/08/04 04:52:02;;;;;;;8.35;3.65;;;;;;;19.64;100.00;101186.03;5078204;28;20028;-71
2022/08/04 04:54:37;;;;;;;7.55;3.67;;;;;;;19.77;100.00;101187.13;5069156;28;20020;-71
2022/08/04 04:57:10;;;;;;;6.05;3.42;;;;;;;19.86;100.00;101191.25;5083858;28;20024;-71
2022/08/04 04:59:45;;;;;;;4.80;2.90;;;;;;;19.94;100.00;101197.25;5076701;28;20051;-71
2022/08/04 05:02:32;;;;;;;7.00;3.28;;;;;;;20.02;100.00;101198.91;5071144;28;20024;-71
2022/08/04 05:05:25;;;;;;;6.90;3.92;;;;;;;20.13;100.00;101198.31;5073072;28;20035;-71
2022/08/04 05:08:18;;;;;;;4.18;2.85;;;;;;;20.27;100.00;101198.31;5079404;28;20047;-71
2022/08/04 05:11:02;;;;;;;8.30;4.47;;;;;;;20.40;100.00;101195.63;5066798;28;20040;-71
2022/08/04 05:13:30;;;;;;;3.95;3.05;;;;;;;20.51;100.00;101196.88;5081464;28;20062;-71
2022/08/04 05:16:04;;;;;;;9.70;4.47;;;;;;;20.50;100.00;101189.88;5077532;28;20211;-70
2022/08/04 05:18:35;;;;;;;6.97;3.83;;;;;;;20.40;100.00;101189.47;5073713;28;20016;-70
2022/08/04 05:21:23;;;;;;;7.00;3.72;;;;;;;20.43;100.00;101199.78;5069443;28;20013;-70
2022/08/04 05:23:55;;;;;;;11.38;5.47;;;;;;;20.33;100.00;101194.81;5079182;28;20046;-70
2022/08/04 05:26:28;;;;;;;12.13;4.90;;;;;;;20.35;100.00;101198.13;5074461;28;20020;-70
2022/08/04 05:28:58;;;;;;;12.15;4.25;;;;;;;20.40;100.00;101184.91;5072447;28;20082;-70
2022/08/04 05:31:31;;;;;;;8.05;4.15;;;;;;;20.54;100.00;101175.84;5076086;28;20457;-70
2022/08/04 05:34:07;;;;;;;12.63;5.55;;;;;;;20.72;100.00;101193.19;5065934;28;20520;-70
2022/08/04 05:36:40;;;;;;;9.43;4.72;;;;;;;20.83;100.00;101203.25;5073468;28;20710;-70
2022/08/04 05:39:11;;;;;;;12.15;4.85;;;;;;;20.88;100.00;101203.47;5081306;28;20028;-70
2022/08/04 05:41:38;;;;;;;7.28;4.60;;;;;;;20.90;100.00;101198.69;5076199;28;20343;-70
2022/08/04 05:44:06;;;;;;;15.73;3.70;;;;;;;21.03;100.00;101199.72;5084527;28;20062;-70
2022/08/04 05:46:32;;;;;;;8.90;4.50;;;;;;;21.17;100.00;101201.34;5074928;28;20028;-70
2022/08/04 05:48:57;;;;;;;11.60;4.65;;;;;;;21.22;100.00;101198.00;5078165;28;20407;-71
2022/08/04 05:51:24;;;;;;;7.40;3.80;;;;;;;21.37;100.00;101212.81;5071803;28;20024;-71
2022/08/04 05:53:50;;;;;;;6.60;3.72;;;;;;;21.45;100.00;101192.16;5074337;28;20498;-71
2022/08/04 05:56:16;;;;;;;8.25;3.97;;;;;;;21.57;100.00;101203.88;5071545;28;20028;-71
2022/08/04 05:58:43;;;;;;;10.98;3.88;;;;;;;21.69;100.00;101207.53;5077856;28;20533;-71
2022/08/04 06:01:10;;;;;;;7.97;4.35;;;;;;;21.70;100.00;101205.69;5076534;28;20024;-71
2022/08/04 06:03:37;;;;;;;10.55;5.10;;;;;;;21.70;100.00;101217.25;5071813;28;20021;-72
2022/08/04 06:06:03;;;;;;;6.78;3.88;;;;;;;21.72;100.00;101215.16;5069807;28;20548;-70
2022/08/04 06:08:30;;;;;;;9.23;4.63;;;;;;;21.68;100.00;101211.25;5070967;28;20059;-70
2022/08/04 06:10:57;;;;;;;12.52;4.28;;;;;;;21.72;100.00;101211.66;5076497;28;20040;-70
2022/08/04 06:13:29;;;;;;;10.60;4.18;;;;;;;21.60;100.00;101208.00;5077737;28;20020;-70
2022/08/04 06:15:58;;;;;;;8.48;3.85;;;;;;;21.68;100.00;101202.38;5074901;28;20480;-70
2022/08/04 06:18:27;;;;;;;6.82;4.07;;;;;;;21.67;100.00;101211.50;5077011;28;20106;-70
2022/08/04 06:20:55;;;;;;;5.70;4.28;;;;;;;21.93;100.00;101205.13;5070703;28;20017;-70
2022/08/04 06:23:22;;;;;;;6.07;3.22;;;;;;;22.09;100.00;101203.78;5074026;28;20032;-70
2022/08/04 06:25:50;;;;;;;10.18;4.43;;;;;;;22.09;97.47;101201.91;5073325;28;20494;-71
2022/08/04 06:28:17;;;;;;;9.70;3.95;;;;;;;22.18;97.41;101214.03;5073758;28;20071;-71
2022/08/04 06:30:48;;;;;;;12.25;4.60;;;;;;;22.40;96.70;101211.00;5079571;28;20481;-71
2022/08/04 06:33:26;;;;;;;15.80;3.78;;;;;;;22.77;95.96;101211.09;5067878;28;20037;-71
2022/08/04 06:35:54;;;;;;;9.35;2.97;;;;;;;23.14;93.17;101201.19;5076829;28;20038;-71
2022/08/04 06:38:24;;;;;;;10.32;3.72;;;;;;;23.45;91.81;101217.41;5036016;28;20420;-71
2022/08/04 06:40:51;;;;;;;7.38;3.60;;;;;;;23.35;90.34;101205.31;5079333;28;20550;-71
2022/08/04 06:43:17;;;;;;;8.32;3.67;;;;;;;23.11;91.70;101215.13;5073250;28;20048;-71
2022/08/04 06:45:43;;;;;;;11.85;3.78;;;;;;;23.16;91.24;101215.25;5080111;28;20043;-71
2022/08/04 06:48:13;;;;;;;8.35;3.50;;;;;;;23.23;91.57;101214.38;5071113;28;20440;-71
2022/08/04 06:50:40;;;;;;;13.45;4.55;;;;;;;23.05;90.60;101209.81;5073203;28;20557;-71
2022/08/04 06:53:06;;;;;;;7.38;3.97;;;;;;;22.78;92.29;101197.44;5074947;28;20047;-71
2022/08/04 06:55:32;;;;;;;9.80;3.42;;;;;;;23.07;92.96;101210.41;5070739;28;20012;-71
2022/08/04 06:58:00;;;;;;;4.85;3.17;;;;;;;23.26;91.89;101206.66;5078107;28;20035;-71
2022/08/04 07:00:26;;;;;;;10.15;4.30;;;;;;;23.34;90.41;101190.22;5074400;28;20396;-71
2022/08/04 07:02:52;;;;;;;7.10;3.05;;;;;;;23.52;90.06;101202.81;5072956;28;20084;-71
2022/08/04 07:05:19;;;;;;;11.20;3.15;;;;;;;23.66;89.31;101197.25;5071608;28;20032;-72
2022/08/04 07:07:45;;;;;;;6.72;2.65;;;;;;;23.80;88.75;101199.56;5078346;28;20492;-71
2022/08/04 07:10:13;;;;;;;5.68;2.22;;;;;;;23.99;87.97;101199.50;5072488;28;20025;-71
2022/08/04 07:12:39;;;;;;;6.20;3.90;;;;;;;23.85;87.17;101195.38;5073111;28;20472;-71
2022/08/04 07:15:06;;;;;;;6.47;3.22;;;;;;;24.00;87.65;101203.84;5072241;28;20112;-71
2022/08/04 07:17:34;;;;;;;7.45;3.40;;;;;;;24.05;86.91;101187.78;5071539;28;20025;-72
2022/08/04 07:20:00;;;;;;;7.32;2.60;;;;;;;24.27;86.83;101203.41;5081544;28;20016;-71
2022/08/04 07:22:27;;;;;;;9.77;3.35;;;;;;;24.40;86.26;101201.31;5075296;28;20541;-71
2022/08/04 07:24:56;;;;;;;5.60;3.33;;;;;;;24.44;84.87;101199.78;5078684;28;20028;-71
2022/08/04 07:27:22;;;;;;;7.85;3.63;;;;;;;24.56;85.85;101199.00;5072097;28;20040;-71
2022/08/04 07:29:48;;;;;;;6.38;2.38;;;;;;;24.91;82.73;101195.47;5076129;28;20032;-71
2022/08/04 07:32:15;;;;;;;3.05;2.15;;;;;;;25.18;81.77;101199.28;5082597;28;20489;-71
2022/08/04 07:34:41;;;;;;;6.07;2.70;;;;;;;25.30;80.90;101191.16;5070901;28;20077;-71
2022/08/04 07:37:07;;;;;;;7.43;2.28;;;;;;;25.90;80.04;101202.59;5081734;28;20107;-71
2022/08/04 07:39:35;;;;;;;4.85;2.50;;;;;;;26.21;76.82;101201.22;5072008;28;20031;-71
2022/08/04 07:42:02;;;;;;;3.42;1.63;;;;;;;26.60;75.95;101198.59;5075419;28;20494;-72
2022/08/04 07:44:31;;;;;;;6.68;2.45;;;;;;;26.28;74.72;101191.03;5078371;28;20028;-72
2022/08/04 07:46:57;;;;;;;5.78;1.80;;;;;;;26.02;75.62;101193.38;5080142;28;20086;-72
2022/08/04 07:49:25;;;;;;;4.15;1.95;;;;;;;26.52;74.41;101190.88;5070188;28;20028;-71
2022/08/04 07:51:51;;;;;;;6.18;1.30;;;;;;;27.33;75.03;101185.78;5071153;28;20479;-71
2022/08/04 07:54:17;;;;;;;5.60;2.05;;;;;;;27.18;71.56;101193.69;5057148;28;20036;-71
2022/08/04 07:56:43;;;;;;;6.80;2.40;;;;;;;27.13;70.28;101185.50;5071837;28;20021;-71
2022/08/04 07:59:08;;;;;;;8.68;2.10;;;;;;;27.02;72.03;101190.81;5080009;28;20030;-71
2022/08/04 08:01:35;;;;;;;6.82;1.98;;;;;;;26.63;72.33;101192.69;5077845;28;20045;-71
2022/08/04 08:04:03;;;;;;;3.95;1.98;;;;;;;26.89;72.42;101191.16;5079434;28;20031;-71
2022/08/04 08:06:29;;;;;;;2.53;1.58;;;;;;;26.89;72.56;101188.44;5071869;28;20044;-72
2022/08/04 08:08:55;;;;;;;3.88;1.88;;;;;;;27.55;70.93;101184.94;5067313;28;20073;-72
2022/08/04 08:11:21;;;;;;;5.07;1.30;;;;;;;27.92;71.16;101186.91;5062751;28;20024;-72
2022/08/04 08:13:47;;;;;;;3.55;1.67;;;;;;;28.31;67.43;101184.81;5076974;28;20082;-72
2022/08/04 08:16:13;;;;;;;3.13;1.27;;;;;;;28.96;66.56;101192.81;5072522;28;20385;-72
2022/08/04 08:18:39;;;;;;;2.33;1.25;;;;;;;29.56;65.95;101193.31;5079353;28;20028;-72
2022/08/04 08:21:06;;;;;;;6.03;1.40;;;;;;;30.47;62.49;101191.75;5073610;28;20020;-72
2022/08/04 08:23:33;;;;;;;3.92;1.25;;;;;;;30.97;63.47;101195.44;5074089;28;20300;-72
2022/08/04 08:25:59;;;;;;;5.47;1.70;;;;;;;32.20;58.77;101183.75;5071296;28;20017;-72
2022/08/04 08:28:25;;;;;;;4.88;1.52;;;;;;;32.50;56.74;101188.09;5075021;28;20623;-72
2022/08/04 08:30:50;;;;;;;4.50;1.27;;;;;;;31.48;57.30;101197.13;5074165;28;20033;-72
2022/08/04 08:33:16;;;;;;;3.28;1.48;;;;;;;31.15;59.73;101178.44;5073475;28;20139;-71
2022/08/04 08:35:47;;;;;;;4.53;1.73;;;;;;;31.99;60.34;101183.16;5075564;28;20032;-72
2022/08/04 08:38:17;;;;;;;1.85;1.13;;;;;;;33.36;57.20;101184.63;5073903;28;20105;-71
2022/08/04 08:41:31;;;;;;;4.32;0.82;;;;;;;33.90;55.08;101190.69;5077723;28;20073;-71
2022/08/04 08:44:34;;;;;;;2.67;1.38;;;;;;;34.51;54.54;101191.56;5075282;28;20032;-71
2022/08/04 08:47:18;;;;;;;3.35;1.13;;;;;;;35.04;53.46;101193.81;5070017;28;20028;-71
2022/08/04 08:50:02;;;;;;;2.75;1.25;;;;;;;34.80;53.61;101196.78;5075748;28;20107;-71
2022/08/04 08:53:01;;;;;;;4.47;1.27;;;;;;;35.09;52.15;101193.69;5071826;28;20078;-72
2022/08/04 08:56:14;;;;;;;3.13;1.30;;;;;;;34.80;54.22;101185.81;5063131;28;20039;-72
2022/08/04 08:58:48;;;;;;;3.95;1.10;;;;;;;35.72;53.00;101191.22;5074047;28;20063;-73
2022/08/04 09:01:23;;;;;;;3.72;1.33;;;;;;;36.12;49.62;101194.88;5060399;28;20024;-73
2022/08/04 09:03:53;;;;;;;3.63;1.40;;;;;;;36.59;51.34;101199.97;5074282;28;20027;-73
2022/08/04 09:06:31;;;;;;;2.97;1.50;;;;;;;37.24;49.38;101201.97;5075576;28;20031;-72
2022/08/04 09:09:13;;;;;;;2.88;1.55;;;;;;;37.61;47.65;101185.97;5072861;28;20028;-72
2022/08/04 09:12:00;;;;;;;3.67;1.70;;;;;;;38.14;48.59;101196.91;5072972;28;20138;-72
2022/08/04 09:14:44;;;;;;;2.58;1.50;;;;;;;38.83;46.38;101195.81;5075099;28;20500;-72
2022/08/04 09:17:22;;;;;;;3.60;1.40;;;;;;;39.03;46.02;101205.28;5070930;28;20020;-72
2022/08/04 09:20:14;;;;;;;2.50;1.20;;;;;;;38.54;46.09;101205.69;5076311;28;20024;-72
2022/08/04 09:22:50;;;;;;;3.80;1.67;;;;;;;37.39;48.58;101205.34;5071995;28;20040;-72
2022/08/04 09:25:27;;;;;;;1.98;1.25;;;;;;;38.48;47.24;101201.47;5072573;28;20430;-72
2022/08/04 09:27:57;;;;;;;4.10;1.60;;;;;;;39.47;44.66;101208.56;5073649;28;20044;-72
2022/08/04 09:30:31;;;;;;;;;;;;;;;39.88;45.03;101206.91;5069895;28;20111;-72
2022/08/04 09:33:15;;;;;;;6.80;1.58;;;;;;;40.62;44.05;101201.50;5072489;28;20017;-72
2022/08/04 09:36:07;;;;;;;4.45;2.22;;;;;;;40.86;42.85;101212.56;5074215;28;20023;-72
2022/08/04 09:39:03;;;;;;;3.33;1.60;;;;;;;40.73;43.65;101213.75;5071829;28;20028;-72
2022/08/04 09:41:39;;;;;;;5.28;1.80;;;;;;;39.17;44.45;101222.38;5067477;28;20025;-72
2022/08/04 09:44:24;;;;;;;2.90;1.42;;;;;;;39.31;44.43;101222.16;5076604;28;20020;-72
2022/08/04 09:47:23;;;;;;;2.95;1.17;;;;;;;39.96;44.00;101219.00;5069121;28;20039;-72
2022/08/04 09:49:54;;;;;;;4.20;1.35;;;;;;;41.03;42.66;101216.22;5072961;28;20137;-72
2022/08/04 09:52:30;;;;;;;1.83;1.13;;;;;;;41.75;41.71;101205.31;5074107;28;20020;-72
2022/08/04 09:55:27;;;;;;;2.85;1.30;;;;;;;42.64;40.84;101222.63;5071483;28;20458;-72
2022/08/04 09:58:03;;;;;;;2.40;1.08;;;;;;;43.13;39.53;101209.09;5073809;28;20099;-72
2022/08/04 10:00:39;;;;;;;3.20;1.20;;;;;;;42.89;39.28;101214.94;5074610;28;20036;-72
2022/08/04 10:03:04;;;;;;;1.17;0.82;;;;;;;43.41;38.65;101218.44;5072559;28;20021;-72
2022/08/04 10:05:36;;;;;;;4.47;1.45;;;;;;;43.04;38.86;101213.28;5078711;28;20025;-72
2022/08/04 10:08:26;;;;;;;2.38;0.90;;;;;;;42.42;39.95;101208.28;5070790;28;20035;-72
2022/08/04 10:11:20;;;;;;;3.83;1.48;;;;;;;41.55;41.04;101207.09;5069251;28;20028;-72
2022/08/04 10:13:48;;;;;;;1.77;0.70;;;;;;;41.71;40.64;101213.50;5069784;28;20025;-72
2022/08/04 10:16:39;;;;;;;2.63;1.10;;;;;;;41.65;40.86;101208.59;5075827;28;20028;-72
2022/08/04 10:19:22;;;;;;;3.78;0.80;;;;;;;41.76;40.36;101209.69;5069607;28;20039;-72
2022/08/04 10:21:54;;;;;;;5.55;0.90;;;;;;;42.50;40.40;101198.94;5072217;28;20036;-72
2022/08/04 10:24:31;;;;;;;3.05;1.15;;;;;;;42.98;39.43;101200.84;5067677;28;20052;-72
2022/08/04 10:27:05;;;;;;;1.75;0.82;;;;;;;43.43;38.39;101196.66;5070302;28;20106;-72
2022/08/04 10:29:42;;;;;;;1.65;0.75;;;;;;;41.97;41.17;101200.34;5067249;28;20116;-72
2022/08/04 10:32:50;;;;;;;3.72;1.20;;;;;;;42.31;39.84;101201.59;5073986;28;20043;-72
2022/08/04 10:35:19;;;;;;;2.67;1.05;;;;;;;42.09;39.31;101205.81;5073580;28;20038;-72
2022/08/04 10:38:00;;;;;;;3.38;0.90;;;;;;;42.24;39.68;101204.22;5069873;28;20411;-72
2022/08/04 10:40:36;;;;;;;1.13;0.80;;;;;;;41.57;39.49;101207.56;5073284;28;20139;-72
2022/08/04 10:43:20;;;;;;;3.05;0.80;;;;;;;41.17;40.56;101211.16;5067562;28;20110;-72
2022/08/04 10:45:50;;;;;;;3.20;0.88;;;;;;;41.44;40.38;101201.25;5076045;28;20043;-72
2022/08/04 10:48:40;;;;;;;1.70;0.93;;;;;;;40.41;40.86;101205.16;5071599;28;20033;-72
2022/08/04 10:51:16;;;;;;;9.10;0.90;;;;;;;39.74;41.96;101211.88;5076745;28;20012;-72
2022/08/04 10:53:44;;;;;;;2.47;0.60;;;;;;;40.01;42.74;101205.78;5076161;28;20073;-72
2022/08/04 10:56:18;;;;;;;2.25;1.02;;;;;;;39.55;41.77;101204.91;5062596;28;20090;-72
2022/08/04 10:58:53;;;;;;;1.75;0.70;;;;;;;39.55;43.49;101204.91;5075265;28;20043;-71
2022/08/04 11:01:26;;;;;;;4.18;0.88;;;;;;;40.28;43.23;101203.53;5078102;28;20493;-71
2022/08/04 11:03:57;;;;;;;3.05;1.00;;;;;;;39.54;45.30;101200.53;5076991;28;20107;-71
2022/08/04 11:06:25;;;;;;;2.30;0.80;;;;;;;39.49;44.57;101217.31;5078769;28;20032;-71
2022/08/04 11:08:54;;;;;;;2.60;1.42;;;;;;;39.30;44.32;101213.03;5075492;28;20020;-71
2022/08/04 11:11:40;;;;;;;2.47;0.83;;;;;;;39.04;44.80;101213.22;5076884;28;20029;-71
2022/08/04 11:14:07;;;;;;;4.00;0.70;;;;;;;38.64;45.52;101215.53;5074707;28;20051;-71
2022/08/04 11:16:45;;;;;;;2.28;0.60;;;;;;;38.28;44.35;101222.28;5078892;28;20027;-72
2022/08/04 11:19:32;;;;;;;0.68;0.40;;;;;;;37.99;45.73;101218.28;5074574;28;20384;-72
2022/08/04 11:22:09;;;;;;;0.73;0.40;;;;;;;38.02;44.56;101233.34;5072705;28;20290;-72
2022/08/04 11:24:51;;;;;;;0.93;0.50;;;;;;;38.19;44.46;101238.06;5073152;28;20024;-72
2022/08/04 11:27:47;;;;;;;2.65;0.63;;;;;;;37.74;45.41;101230.16;5073105;28;20099;-72
2022/08/04 11:30:16;;;;;;;0.82;0.50;;;;;;;37.18;45.84;101236.25;5076657;28;20131;-72
2022/08/04 11:32:48;;;;;;;0.77;0.30;;;;;;;36.98;46.43;101228.59;5075170;28;20024;-71
2022/08/04 11:35:54;;;;;;;0.88;0.50;;;;;;;36.45;48.04;101233.88;5077768;28;20380;-71
2022/08/04 11:38:49;;;;;;;1.40;0.50;;;;;;;35.87;47.72;101248.50;5074388;28;20108;-71
2022/08/04 11:41:21;;;;;;;2.70;0.50;;;;;;;35.79;48.45;101260.25;5072808;28;20059;-72
2022/08/04 11:43:58;;;;;;;1.58;0.47;;;;;;;35.50;48.63;101247.69;5075774;28;20044;-72
2022/08/04 11:46:37;;;;;;;0.60;0.40;;;;;;;35.66;47.67;101250.13;5074395;28;20021;-71
2022/08/04 11:49:20;;;;;;;0.75;0.50;;;;;;;35.63;48.00;101246.06;5073134;28;20480;-71
2022/08/04 11:51:49;;;;;;;0.50;0.25;;;;;;;35.59;47.39;101245.84;5071001;28;20580;-71
2022/08/04 11:54:15;;;;;;;1.33;0.40;;;;;;;35.27;47.82;101246.81;5074228;28;20017;-71
2022/08/04 11:56:41;;;;;;;0.60;0.32;;;;;;;35.36;48.28;101258.69;5074797;28;20028;-71
2022/08/04 11:59:09;;;;;;;1.25;0.60;;;;;;;35.51;47.75;101259.47;5072234;28;20052;-71
2022/08/04 12:01:56;;;;;;;0.60;0.40;;;;;;;36.34;46.46;101267.44;5075682;28;20051;-71